Time;durP1;ratioP1;P1;durP2;ratioP2;P2;SDS_P1;SDS_P2;PMS_P1;PMS_P2;Temp;Humidity;BMP_temperature;BMP_pressure;BME280_temperature;BME280_humidity;BME280_pressure;Samples;Min_cycle;Max_cycle;Signal;HPM_P1;HPM_P2
2022/01/30 00:00:07;;;;;;;12.73;2.90;;;;;;;5.38;89.49;100413.53;5077338;28;20383;-48
2022/01/30 00:02:33;;;;;;;13.10;3.37;;;;;;;5.40;89.03;100440.47;5076142;28;20248;-49
2022/01/30 00:04:59;;;;;;;16.70;4.57;;;;;;;5.37;89.71;100419.56;5069363;28;20259;-49
2022/01/30 00:07:26;;;;;;;13.80;3.60;;;;;;;5.32;91.32;100419.53;5079269;27;20914;-53
2022/01/30 00:09:52;;;;;;;10.70;3.23;;;;;;;5.32;90.86;100411.72;5079419;28;20254;-48
2022/01/30 00:12:26;;;;;;;21.33;4.43;;;;;;;5.36;90.29;100410.91;5077294;28;20219;-51
2022/01/30 00:18:29;;;;;;;16.63;4.03;;;;;;;5.38;88.41;100418.75;5055896;28;20941;-51
2022/01/30 00:21:06;;;;;;;13.57;4.27;;;;;;;5.45;88.87;100411.03;5077655;28;20352;-50
2022/01/30 00:23:34;;;;;;;23.77;4.07;;;;;;;5.45;88.80;100420.59;5072562;28;20242;-50
2022/01/30 00:26:03;;;;;;;14.73;4.10;;;;;;;5.41;87.44;100403.19;5076142;27;20245;-51
2022/01/30 00:28:32;;;;;;;16.27;3.53;;;;;;;5.48;86.72;100418.91;5080123;28;20295;-49
2022/01/30 00:30:58;;;;;;;12.07;3.73;;;;;;;5.53;87.44;100426.78;5073681;28;20222;-50
2022/01/30 00:33:27;;;;;;;9.60;2.43;;;;;;;5.59;85.77;100415.59;5071879;28;20230;-50
2022/01/30 00:35:53;;;;;;;23.40;4.20;;;;;;;5.62;85.79;100408.69;5080328;28;20295;-52
2022/01/30 00:38:22;;;;;;;9.63;3.27;;;;;;;5.69;84.47;100399.22;5082704;28;20231;-52
2022/01/30 00:40:49;;;;;;;16.30;3.50;;;;;;;5.72;84.32;100394.94;5078603;28;20742;-50
2022/01/30 00:43:15;;;;;;;13.97;4.07;;;;;;;5.81;84.74;100399.38;5079127;27;20257;-50
2022/01/30 00:45:42;;;;;;;11.33;3.57;;;;;;;5.73;83.69;100407.09;5078721;28;20265;-50
2022/01/30 00:48:09;;;;;;;11.50;3.17;;;;;;;5.66;83.50;100426.09;5077282;28;20295;-52
2022/01/30 00:50:37;;;;;;;4.80;2.37;;;;;;;5.66;85.72;100407.00;5071369;28;20242;-51
2022/01/30 00:53:04;;;;;;;15.30;3.30;;;;;;;5.53;87.36;100392.94;5078946;28;20273;-53
2022/01/30 00:55:31;;;;;;;18.93;3.87;;;;;;;5.45;88.18;100376.34;5079375;28;20239;-49
2022/01/30 00:57:58;;;;;;;10.40;2.47;;;;;;;5.43;89.43;100378.03;5079782;27;20390;-50
2022/01/30 01:00:26;;;;;;;8.63;2.93;;;;;;;5.43;90.06;100370.22;5065147;27;20288;-50
2022/01/30 01:02:53;;;;;;;7.60;2.73;;;;;;;5.42;88.25;100378.88;5069601;27;20307;-50
2022/01/30 01:05:19;;;;;;;13.10;3.67;;;;;;;5.44;87.42;100356.34;5095336;27;20325;-51
2022/01/30 01:07:49;;;;;;;19.13;4.03;;;;;;;5.43;87.74;100365.00;5081263;28;20279;-50
2022/01/30 01:10:25;;;;;;;17.17;3.70;;;;;;;5.41;86.05;100366.72;5074874;28;20226;-51
2022/01/30 01:13:27;;;;;;;10.80;3.03;;;;;;;5.45;85.71;100345.97;5069592;28;20223;-49
2022/01/30 01:24:07;;;;;;;7.97;2.93;;;;;;;5.68;81.53;100369.69;5089349;27;20264;-50
2022/01/30 01:26:35;;;;;;;12.20;4.10;;;;;;;5.77;80.39;100386.31;5086792;27;20226;-51
2022/01/30 01:29:02;;;;;;;14.20;3.13;;;;;;;5.85;80.43;100369.03;5087065;27;20230;-51
2022/01/30 01:31:28;;;;;;;12.67;2.97;;;;;;;5.84;79.59;100351.66;5081401;27;20380;-51
2022/01/30 01:36:47;;;;;;;13.43;3.07;;;;;;;5.86;80.64;100349.94;5053140;28;20234;-50
2022/01/30 01:39:15;;;;;;;14.53;3.13;;;;;;;5.86;79.46;100345.63;5085064;27;20272;-53
2022/01/30 01:41:41;;;;;;;11.40;3.43;;;;;;;5.86;80.15;100357.75;5071769;28;20330;-50
2022/01/30 01:44:14;;;;;;;12.83;3.43;;;;;;;5.83;79.63;100355.13;5080855;27;20246;-49
2022/01/30 01:46:42;;;;;;;14.10;4.73;;;;;;;5.87;80.56;100356.91;5083968;28;20246;-50
2022/01/30 01:49:13;;;;;;;11.10;3.30;;;;;;;5.84;79.92;100368.16;5078060;27;20243;-49
2022/01/30 01:51:46;;;;;;;11.33;2.83;;;;;;;5.83;79.50;100386.38;5092401;27;20245;-51
2022/01/30 01:54:14;;;;;;;13.13;2.77;;;;;;;5.87;80.26;100359.50;5089217;28;20269;-51
2022/01/30 01:56:41;;;;;;;5.77;2.23;;;;;;;5.91;79.68;100384.75;5083691;27;20242;-51
2022/01/30 01:59:07;;;;;;;11.13;3.30;;;;;;;5.90;79.98;100383.00;5084997;27;20296;-51
2022/01/30 02:01:33;;;;;;;16.33;3.33;;;;;;;5.91;79.82;100363.91;5078130;28;20235;-48
2022/01/30 02:04:00;;;;;;;11.40;4.30;;;;;;;5.94;81.08;100345.72;5080342;27;20234;-54
2022/01/30 02:06:27;;;;;;;10.93;3.80;;;;;;;5.88;80.20;100349.09;5083864;28;20329;-50
2022/01/30 02:08:57;;;;;;;10.67;2.63;;;;;;;5.86;82.81;100370.78;5085145;27;20567;-50
2022/01/30 02:11:33;;;;;;;10.23;2.70;;;;;;;5.84;82.11;100347.31;5088069;28;20317;-51
2022/01/30 02:14:23;;;;;;;11.17;3.17;;;;;;;5.82;81.41;100353.34;5082773;28;20280;-51
2022/01/30 02:25:36;;;;;;;10.37;3.07;;;;;;;5.92;79.37;100368.25;5087708;28;20237;-51
2022/01/30 02:28:08;;;;;;;16.97;3.97;;;;;;;5.88;78.87;100358.66;5087452;27;20239;-50
2022/01/30 02:30:37;;;;;;;16.67;4.37;;;;;;;5.88;80.17;100366.47;5078241;27;20298;-52
2022/01/30 02:33:04;;;;;;;13.10;2.90;;;;;;;5.89;80.77;100352.56;5084164;27;20246;-51
2022/01/30 02:35:30;;;;;;;16.40;3.33;;;;;;;5.86;80.77;100368.16;5079018;28;20226;-52
2022/01/30 02:38:00;;;;;;;14.70;3.37;;;;;;;5.78;81.30;100377.63;5083272;28;20246;-51
2022/01/30 02:40:28;;;;;;;16.43;3.77;;;;;;;5.81;80.88;100375.06;5080933;28;20306;-51
2022/01/30 02:42:55;;;;;;;11.50;2.87;;;;;;;5.80;80.26;100347.28;5081358;27;20352;-50
2022/01/30 02:45:25;;;;;;;8.67;3.13;;;;;;;5.80;80.98;100370.72;5082366;28;20969;-52
2022/01/30 02:47:58;;;;;;;12.03;2.80;;;;;;;5.85;80.26;100364.69;5078632;27;20241;-51
2022/01/30 02:50:36;;;;;;;14.33;4.17;;;;;;;5.79;79.84;100363.72;5075213;28;20245;-48
2022/01/30 02:53:08;;;;;;;17.43;2.93;;;;;;;5.83;79.85;100368.16;5081175;28;20807;-52
2022/01/30 02:55:35;;;;;;;10.17;2.80;;;;;;;5.84;80.21;100362.94;5080552;28;20231;-51
2022/01/30 02:58:01;;;;;;;18.17;3.67;;;;;;;5.84;82.49;100354.25;5085651;28;20242;-50
2022/01/30 03:00:27;;;;;;;12.57;3.93;;;;;;;5.82;81.31;100354.22;5077187;27;20238;-50
2022/01/30 03:02:54;;;;;;;11.87;3.57;;;;;;;5.78;80.95;100372.41;5081730;27;20238;-52
2022/01/30 03:05:20;;;;;;;7.53;2.83;;;;;;;5.77;80.80;100362.84;5079569;28;20234;-58
2022/01/30 03:07:47;;;;;;;6.33;2.33;;;;;;;5.80;79.90;100353.34;5078729;28;20226;-52
2022/01/30 03:10:15;;;;;;;17.17;3.53;;;;;;;5.73;79.43;100377.56;5081191;28;20242;-53
2022/01/30 03:12:41;;;;;;;13.97;3.00;;;;;;;5.74;80.90;100367.16;5079693;27;20245;-50
2022/01/30 03:15:08;;;;;;;10.77;2.73;;;;;;;5.70;83.44;100348.88;5078976;28;20222;-51
2022/01/30 03:17:35;;;;;;;10.00;2.83;;;;;;;5.57;82.94;100386.91;5076712;28;20257;-51
2022/01/30 03:20:03;;;;;;;11.73;2.67;;;;;;;5.54;84.56;100399.00;5079331;27;20302;-49
2022/01/30 03:22:29;;;;;;;14.73;3.17;;;;;;;5.48;85.25;100405.00;5082294;27;20319;-51
2022/01/30 03:24:56;;;;;;;12.37;2.93;;;;;;;5.45;85.97;100389.34;5067982;28;20230;-51
2022/01/30 03:27:24;;;;;;;6.80;4.30;;;;;;;5.43;86.48;100401.47;5077284;28;20262;-52
2022/01/30 03:30:02;;;;;;;14.03;2.80;;;;;;;5.32;87.30;100361.38;5078009;27;20254;-59
2022/01/30 03:32:28;;;;;;;11.50;2.93;;;;;;;5.29;85.94;100371.75;5083060;28;20237;-51
2022/01/30 03:34:55;;;;;;;12.27;4.20;;;;;;;5.38;83.46;100357.16;5088450;28;20254;-50
2022/01/30 03:37:21;;;;;;;13.90;4.30;;;;;;;5.37;82.30;100375.31;5087008;28;20283;-51
2022/01/30 03:39:47;;;;;;;12.23;5.93;;;;;;;5.36;81.03;100347.56;5086143;28;20230;-52
2022/01/30 03:42:14;;;;;;;11.03;3.63;;;;;;;5.39;80.80;100358.00;5081986;28;20269;-49
2022/01/30 03:44:41;;;;;;;15.83;3.70;;;;;;;5.44;81.27;100340.72;5078985;28;20235;-48
2022/01/30 03:47:08;;;;;;;12.30;3.60;;;;;;;5.39;81.83;100358.00;5081567;27;20241;-50
2022/01/30 03:49:35;;;;;;;17.43;3.97;;;;;;;5.44;82.04;100353.72;5071561;28;20261;-51
2022/01/30 03:52:01;;;;;;;10.47;3.77;;;;;;;5.42;81.41;100358.06;5077554;27;20231;-50
2022/01/30 03:54:28;;;;;;;16.23;3.47;;;;;;;5.46;82.55;100359.84;5081079;27;20246;-52
2022/01/30 03:56:55;;;;;;;19.50;3.50;;;;;;;5.37;83.25;100381.44;5080641;28;20230;-46
2022/01/30 03:59:21;;;;;;;16.20;3.17;;;;;;;5.31;85.40;100362.25;5082087;28;20223;-51
2022/01/30 04:01:49;;;;;;;12.83;3.67;;;;;;;5.15;92.47;100375.00;5085591;28;20231;-52
2022/01/30 04:04:15;;;;;;;10.73;3.63;;;;;;;4.77;96.15;100375.31;5084308;27;20261;-51
2022/01/30 04:06:42;;;;;;;15.93;4.27;;;;;;;4.64;98.79;100362.06;5077957;27;20223;-50
2022/01/30 04:09:09;;;;;;;12.97;3.23;;;;;;;4.59;99.14;100382.78;5085053;27;20256;-50
2022/01/30 04:11:36;;;;;;;18.30;4.57;;;;;;;4.51;100.00;100384.38;5072988;28;20299;-49
2022/01/30 04:14:02;;;;;;;9.73;2.80;;;;;;;4.51;100.00;100407.75;5077400;28;20320;-50
2022/01/30 04:16:29;;;;;;;10.37;2.70;;;;;;;4.43;100.00;100396.38;5073689;28;20268;-50
2022/01/30 04:18:57;;;;;;;11.93;3.30;;;;;;;4.37;100.00;100380.66;5075739;27;20242;-49
2022/01/30 04:21:24;;;;;;;15.33;3.27;;;;;;;4.35;100.00;100393.59;5071516;28;20257;-52
2022/01/30 04:23:50;;;;;;;17.43;4.10;;;;;;;4.34;100.00;100401.38;5077921;28;20289;-50
2022/01/30 04:26:17;;;;;;;9.73;4.10;;;;;;;4.39;100.00;100400.63;5076104;28;20298;-50
2022/01/30 04:28:44;;;;;;;10.90;3.30;;;;;;;4.48;100.00;100386.91;5081891;27;20248;-51
2022/01/30 04:31:10;;;;;;;10.17;3.40;;;;;;;4.50;100.00;100398.22;5076939;27;20351;-50
2022/01/30 04:33:37;;;;;;;11.23;3.80;;;;;;;4.61;100.00;100370.69;5084241;28;20238;-49
2022/01/30 04:36:09;;;;;;;13.07;3.10;;;;;;;4.70;100.00;100362.16;5072263;28;20231;-52
2022/01/30 04:38:51;;;;;;;15.43;3.67;;;;;;;4.71;96.95;100372.59;5083794;28;20636;-51
2022/01/30 04:41:48;;;;;;;9.80;3.03;;;;;;;4.79;94.99;100360.59;5085980;28;20256;-52
2022/01/30 04:56:00;;;;;;;11.00;2.33;;;;;;;4.93;92.38;100360.81;5090252;28;20714;-50
2022/01/30 04:58:21;;;;;;;13.53;3.33;;;;;;;4.89;92.57;100376.34;5092607;28;20238;-52
2022/01/30 05:03:40;;;;;;;15.23;3.33;;;;;;;4.88;92.71;100385.88;5085818;28;20239;-52
2022/01/30 05:06:11;;;;;;;10.87;2.37;;;;;;;4.92;93.76;100379.00;5084895;28;20226;-50
2022/01/30 05:08:39;;;;;;;11.03;2.43;;;;;;;4.93;94.62;100409.38;5087327;28;20931;-50
2022/01/30 05:11:07;;;;;;;15.40;3.13;;;;;;;4.89;94.83;100423.19;5085600;28;20306;-51
2022/01/30 05:13:36;;;;;;;8.70;3.17;;;;;;;4.86;95.51;100433.53;5078628;28;20318;-51
2022/01/30 05:16:03;;;;;;;11.87;2.93;;;;;;;4.83;94.91;100447.34;5084897;28;20298;-51
2022/01/30 05:18:31;;;;;;;9.03;2.93;;;;;;;4.88;94.00;100411.00;5080460;28;20715;-50
2022/01/30 05:20:58;;;;;;;12.37;3.10;;;;;;;4.85;92.31;100409.25;5085342;27;20250;-51
2022/01/30 05:23:25;;;;;;;15.93;2.90;;;;;;;4.89;91.61;100411.03;5077213;28;20569;-50
2022/01/30 05:25:53;;;;;;;11.10;2.87;;;;;;;4.94;88.69;100411.09;5073454;27;20325;-51
2022/01/30 05:28:22;;;;;;;9.53;2.83;;;;;;;4.94;88.36;100421.50;5078072;28;20230;-50
2022/01/30 05:30:50;;;;;;;13.83;3.07;;;;;;;4.94;88.12;100427.59;5083679;28;20257;-52
2022/01/30 05:33:16;;;;;;;10.07;4.40;;;;;;;4.98;87.25;100428.50;5083534;28;20256;-50
2022/01/30 05:35:43;;;;;;;17.63;4.00;;;;;;;5.08;84.89;100460.78;5086854;28;20279;-51
2022/01/30 05:38:10;;;;;;;11.10;4.00;;;;;;;5.07;84.80;100457.28;5086183;27;20242;-49
2022/01/30 05:40:38;;;;;;;15.67;3.03;;;;;;;5.09;84.22;100457.31;5073601;27;20681;-50
2022/01/30 05:43:06;;;;;;;9.37;2.93;;;;;;;5.09;85.26;100470.31;5073395;28;20265;-50
2022/01/30 05:45:36;;;;;;;15.80;4.07;;;;;;;5.07;83.67;100472.91;5084867;28;20631;-51
2022/01/30 05:48:08;;;;;;;11.13;4.13;;;;;;;5.07;85.77;100472.91;5078978;28;20245;-51
2022/01/30 05:50:35;;;;;;;18.73;3.70;;;;;;;4.96;87.48;100484.88;5082162;27;21060;-50
2022/01/30 05:53:01;;;;;;;12.87;4.17;;;;;;;4.85;90.67;100463.00;5081369;28;20550;-52
2022/01/30 05:55:30;;;;;;;19.57;4.67;;;;;;;4.63;90.33;100452.16;5075018;28;20607;-51
2022/01/30 05:57:57;;;;;;;13.40;4.43;;;;;;;4.56;89.56;100450.31;5077659;28;20293;-49
2022/01/30 06:00:24;;;;;;;15.30;4.10;;;;;;;4.59;89.64;100447.75;5079638;28;20238;-50
2022/01/30 06:02:51;;;;;;;15.93;3.53;;;;;;;4.61;89.43;100459.09;5081804;28;20231;-50
2022/01/30 06:05:20;;;;;;;12.67;3.77;;;;;;;4.68;87.76;100437.53;5087903;28;20544;-51
2022/01/30 06:07:50;;;;;;;14.83;3.53;;;;;;;4.70;86.86;100433.25;5083992;28;20234;-50
2022/01/30 06:10:17;;;;;;;15.27;4.03;;;;;;;4.79;86.71;100409.13;5088315;27;20679;-50
2022/01/30 06:12:44;;;;;;;17.17;4.23;;;;;;;4.81;85.94;100414.34;5086769;28;20307;-51
2022/01/30 06:15:11;;;;;;;14.90;3.43;;;;;;;4.86;85.86;100412.72;5074582;28;20237;-51
2022/01/30 06:17:38;;;;;;;17.87;3.77;;;;;;;4.91;85.13;100447.47;5085671;28;20227;-50
2022/01/30 06:20:06;;;;;;;14.80;3.53;;;;;;;4.96;85.11;100451.03;5081874;28;20324;-50
2022/01/30 06:22:32;;;;;;;18.90;4.10;;;;;;;4.99;83.91;100443.28;5088198;28;20233;-51
2022/01/30 06:24:58;;;;;;;11.43;2.87;;;;;;;5.01;84.11;100438.97;5082915;28;20238;-48
2022/01/30 06:27:25;;;;;;;21.13;4.33;;;;;;;5.02;84.89;100441.63;5081524;27;20242;-50
2022/01/30 06:29:51;;;;;;;11.37;4.20;;;;;;;4.93;85.62;100445.78;5085438;28;20234;-52
2022/01/30 06:32:17;;;;;;;24.93;3.17;;;;;;;4.86;85.45;100443.94;5081437;28;20258;-50
2022/01/30 06:34:45;;;;;;;15.43;4.17;;;;;;;4.87;83.85;100445.66;5075256;28;20237;-49
2022/01/30 06:37:12;;;;;;;15.20;4.17;;;;;;;4.82;85.95;100440.41;5077623;28;20243;-51
2022/01/30 06:43:00;;;;;;;12.63;3.47;;;;;;;4.86;83.57;100446.53;5073712;28;20280;-52
2022/01/30 06:45:27;;;;;;;9.70;3.10;;;;;;;4.94;82.49;100426.72;5076177;28;20239;-52
2022/01/30 06:47:53;;;;;;;12.73;3.87;;;;;;;5.00;82.06;100432.91;5080064;28;20621;-50
2022/01/30 06:50:21;;;;;;;8.20;2.77;;;;;;;4.99;82.03;100435.50;5074739;28;20658;-51
2022/01/30 06:52:47;;;;;;;14.80;3.67;;;;;;;5.08;81.98;100425.22;5089485;28;20225;-50
2022/01/30 06:55:13;;;;;;;11.37;3.20;;;;;;;5.09;80.88;100437.41;5080502;28;20858;-51
2022/01/30 06:57:43;;;;;;;12.93;3.00;;;;;;;5.16;80.54;100428.84;5085916;28;20254;-50
2022/01/30 07:00:10;;;;;;;16.80;3.13;;;;;;;5.19;78.57;100446.19;5076912;28;20246;-52
2022/01/30 07:02:36;;;;;;;13.67;3.60;;;;;;;5.24;78.09;100476.66;5084571;27;20328;-49
2022/01/30 07:05:03;;;;;;;9.73;3.17;;;;;;;5.30;77.47;100456.78;5082210;28;20238;-50
2022/01/30 07:07:31;;;;;;;7.63;2.60;;;;;;;5.32;76.49;100460.28;5074290;28;20394;-51
2022/01/30 07:09:57;;;;;;;20.33;4.70;;;;;;;5.38;76.86;100463.88;5082556;27;20737;-49
2022/01/30 07:12:24;;;;;;;12.27;3.20;;;;;;;5.40;76.19;100471.69;5085630;28;20319;-52
2022/01/30 07:14:50;;;;;;;9.13;2.83;;;;;;;5.39;75.90;100465.63;5081396;28;20292;-51
2022/01/30 07:17:16;;;;;;;12.20;3.80;;;;;;;5.35;77.31;100466.44;5082620;27;20226;-51
2022/01/30 07:19:43;;;;;;;12.27;3.60;;;;;;;5.44;76.64;100500.44;5077074;28;20286;-51
2022/01/30 07:22:09;;;;;;;11.87;4.00;;;;;;;5.47;75.66;100486.56;5081830;28;20292;-51
2022/01/30 07:24:37;;;;;;;11.70;3.07;;;;;;;5.48;75.74;100489.22;5086292;28;20258;-50
2022/01/30 07:27:03;;;;;;;15.47;4.07;;;;;;;5.48;76.25;100489.22;5082648;28;20292;-48
2022/01/30 07:29:30;;;;;;;17.40;3.67;;;;;;;5.52;75.77;100500.53;5079355;28;20255;-51
2022/01/30 07:31:56;;;;;;;18.37;4.33;;;;;;;5.50;75.72;100500.50;5071275;28;20316;-50
2022/01/30 07:34:23;;;;;;;12.90;3.07;;;;;;;5.57;75.44;100518.84;5076134;28;20246;-50
2022/01/30 07:36:49;;;;;;;8.33;2.80;;;;;;;5.56;74.48;100543.13;5080638;28;20376;-51
2022/01/30 07:39:16;;;;;;;9.33;2.70;;;;;;;5.57;75.70;100526.66;5081854;27;20254;-50
2022/01/30 07:41:44;;;;;;;13.30;2.90;;;;;;;5.56;75.08;100546.59;5079122;28;20242;-51
2022/01/30 07:44:11;;;;;;;11.10;4.67;;;;;;;5.58;74.42;100557.03;5074468;28;20275;-48
2022/01/30 07:46:37;;;;;;;12.23;3.23;;;;;;;5.60;74.54;100584.88;5079029;28;20243;-51
2022/01/30 07:49:04;;;;;;;13.93;3.17;;;;;;;5.59;75.13;100590.06;5076493;28;20265;-51
2022/01/30 07:51:30;;;;;;;14.83;3.23;;;;;;;5.57;75.30;100565.72;5082644;28;20288;-52
2022/01/30 07:53:56;;;;;;;8.43;2.90;;;;;;;5.61;74.38;100576.19;5089001;27;20230;-51
2022/01/30 07:56:23;;;;;;;15.43;3.53;;;;;;;5.71;74.51;100595.47;5071028;28;20238;-51
2022/01/30 07:58:51;;;;;;;13.77;4.67;;;;;;;5.70;73.51;100589.38;5080573;27;20238;-50
2022/01/30 08:01:17;;;;;;;14.70;4.17;;;;;;;5.67;74.19;100609.28;5075218;28;20238;-49
2022/01/30 08:03:43;;;;;;;15.57;3.03;;;;;;;5.69;74.03;100590.25;5078218;28;20346;-50
2022/01/30 08:06:10;;;;;;;17.37;3.37;;;;;;;5.67;74.21;100627.50;5084877;28;20730;-50
2022/01/30 08:08:36;;;;;;;18.97;4.53;;;;;;;5.75;74.68;100625.91;5081654;28;20239;-50
2022/01/30 08:11:02;;;;;;;13.30;3.33;;;;;;;5.74;74.40;100627.63;5083787;28;20283;-54
2022/01/30 08:13:29;;;;;;;13.00;2.87;;;;;;;5.72;73.48;100637.19;5076595;28;20299;-51
2022/01/30 08:15:58;;;;;;;13.60;3.57;;;;;;;5.69;74.25;100650.16;5084729;28;20296;-50
2022/01/30 08:18:24;;;;;;;12.27;4.00;;;;;;;5.76;74.10;100658.94;5077215;28;20629;-52
2022/01/30 08:20:50;;;;;;;15.43;3.80;;;;;;;5.75;73.00;100673.66;5090447;28;20261;-55
2022/01/30 08:23:18;;;;;;;12.93;3.53;;;;;;;5.72;73.59;100668.44;5090347;28;20230;-51
2022/01/30 08:25:45;;;;;;;15.17;3.27;;;;;;;5.78;73.81;100675.47;5101758;28;20237;-52
2022/01/30 08:28:12;;;;;;;9.83;3.10;;;;;;;5.82;73.44;100676.38;5097790;27;20238;-49
2022/01/30 08:30:38;;;;;;;12.47;3.23;;;;;;;5.87;72.90;100700.81;5096441;28;20707;-53
2022/01/30 08:33:06;;;;;;;12.30;3.03;;;;;;;5.85;72.03;100687.75;5096394;28;20234;-51
2022/01/30 08:35:33;;;;;;;14.57;4.07;;;;;;;5.85;72.24;100687.75;5082749;28;20595;-53
2022/01/30 08:38:00;;;;;;;12.63;3.23;;;;;;;5.89;72.79;100701.69;5084885;28;20280;-50
2022/01/30 08:40:27;;;;;;;15.83;3.20;;;;;;;5.89;71.98;100704.31;5084359;28;20226;-50
2022/01/30 08:42:53;;;;;;;18.80;3.03;;;;;;;5.93;71.57;100708.75;5083531;28;20295;-51
2022/01/30 08:45:21;;;;;;;13.10;3.43;;;;;;;5.98;71.40;100712.31;5086205;27;20878;-51
2022/01/30 08:47:49;;;;;;;13.53;3.87;;;;;;;5.93;71.35;100716.56;5086630;28;20892;-50
2022/01/30 08:50:17;;;;;;;15.10;3.60;;;;;;;6.01;70.71;100711.50;5085041;28;20230;-49
2022/01/30 08:52:44;;;;;;;16.70;4.07;;;;;;;6.08;70.28;100737.69;5066675;28;20278;-51
2022/01/30 08:55:11;;;;;;;13.20;2.97;;;;;;;6.05;70.09;100727.22;5085099;28;20220;-49
2022/01/30 08:57:38;;;;;;;16.63;3.37;;;;;;;6.07;70.07;100717.72;5077940;28;20649;-48
2022/01/30 09:00:07;;;;;;;11.80;2.83;;;;;;;6.05;69.93;100736.78;5082042;27;20239;-51
2022/01/30 09:02:33;;;;;;;12.83;3.60;;;;;;;6.07;69.59;100722.91;5074428;28;20839;-50
2022/01/30 09:04:59;;;;;;;9.00;2.87;;;;;;;6.04;69.63;100751.53;5082644;28;20235;-49
2022/01/30 09:07:27;;;;;;;10.67;4.77;;;;;;;6.04;70.83;100745.41;5083981;27;20254;-49
2022/01/30 09:09:53;;;;;;;17.27;3.53;;;;;;;6.08;70.58;100742.91;5084327;28;22332;-50
2022/01/30 09:12:20;;;;;;;12.37;3.23;;;;;;;6.09;70.43;100734.22;5083856;28;20230;-47
2022/01/30 09:14:46;;;;;;;20.37;5.97;;;;;;;6.14;70.50;100748.25;5089035;28;20238;-51
2022/01/30 09:17:14;;;;;;;17.60;3.53;;;;;;;6.10;70.35;100759.44;5083400;27;20231;-50
2022/01/30 09:19:41;;;;;;;15.67;3.17;;;;;;;6.18;70.27;100755.25;5084584;28;20295;-50
2022/01/30 09:22:08;;;;;;;14.00;4.07;;;;;;;6.15;69.79;100752.59;5079636;27;20265;-50
2022/01/30 09:24:37;;;;;;;13.37;4.07;;;;;;;6.18;69.99;100750.03;5077614;28;20281;-47
2022/01/30 09:27:04;;;;;;;17.33;4.17;;;;;;;6.24;70.27;100758.81;5084088;28;20230;-49
2022/01/30 09:29:31;;;;;;;15.80;3.03;;;;;;;6.16;69.73;100756.94;5082827;27;20242;-50
2022/01/30 09:31:58;;;;;;;10.60;3.73;;;;;;;6.17;69.76;100769.13;5086151;28;20321;-49
2022/01/30 09:34:25;;;;;;;14.87;3.80;;;;;;;6.26;69.18;100775.38;5080168;28;20253;-50
2022/01/30 09:36:51;;;;;;;13.77;4.00;;;;;;;6.18;69.12;100778.72;5083540;28;20250;-51
2022/01/30 09:39:18;;;;;;;17.33;3.03;;;;;;;6.22;68.72;100790.94;5088102;28;20380;-50
2022/01/30 09:41:46;;;;;;;14.80;4.10;;;;;;;6.23;68.70;100791.81;5090483;28;20891;-50
2022/01/30 09:44:13;;;;;;;11.70;3.17;;;;;;;6.24;68.72;100810.94;5088842;28;20246;-49
2022/01/30 09:46:42;;;;;;;15.10;3.97;;;;;;;6.31;67.77;100802.38;5084904;28;20259;-50
2022/01/30 09:49:08;;;;;;;12.30;2.63;;;;;;;6.27;68.33;100811.00;5093620;28;20776;-49
2022/01/30 09:51:35;;;;;;;16.10;3.50;;;;;;;6.33;68.53;100821.53;5088729;28;20250;-49
2022/01/30 09:54:01;;;;;;;9.47;3.73;;;;;;;6.40;67.43;100826.88;5087725;28;20231;-49
2022/01/30 09:56:28;;;;;;;9.10;2.97;;;;;;;6.32;67.70;100819.78;5077706;27;20872;-48
2022/01/30 09:58:55;;;;;;;10.23;3.20;;;;;;;6.36;67.05;100848.56;5086315;28;20466;-51
2022/01/30 10:01:22;;;;;;;10.63;3.47;;;;;;;6.31;67.18;100844.97;5075326;28;20270;-50
2022/01/30 10:03:49;;;;;;;11.10;3.47;;;;;;;6.30;67.83;100858.00;5090498;28;20833;-51
2022/01/30 10:06:20;;;;;;;13.97;3.70;;;;;;;6.37;67.62;100855.50;5083803;28;20239;-49
2022/01/30 10:08:52;;;;;;;13.83;3.93;;;;;;;6.44;67.22;100873.03;5085365;28;20288;-51
2022/01/30 10:11:31;;;;;;;17.73;3.70;;;;;;;6.34;67.91;100859.78;5085561;28;20234;-50
2022/01/30 10:14:07;;;;;;;16.23;4.00;;;;;;;6.38;67.42;100882.47;5082848;28;20286;-50
2022/01/30 10:16:36;;;;;;;16.23;4.57;;;;;;;6.26;68.31;100871.81;5075633;28;20875;-49
2022/01/30 10:19:09;;;;;;;20.73;4.40;;;;;;;6.29;68.54;100877.09;5083283;27;20905;-51
2022/01/30 10:21:35;;;;;;;21.57;5.17;;;;;;;6.30;68.09;100878.84;5082794;28;20646;-52
2022/01/30 10:24:18;;;;;;;11.30;3.13;;;;;;;6.30;68.61;100884.06;5088219;27;20748;-49
2022/01/30 10:26:44;;;;;;;14.87;4.47;;;;;;;6.28;68.74;100891.84;5085040;28;20246;-49
2022/01/30 10:29:26;;;;;;;13.17;5.17;;;;;;;6.22;69.29;100907.38;5079553;28;20807;-50
2022/01/30 10:32:00;;;;;;;13.60;3.40;;;;;;;6.28;68.44;100909.22;5080797;27;20624;-49
2022/01/30 10:34:27;;;;;;;14.27;3.50;;;;;;;6.23;68.19;100914.34;5078933;28;20283;-51
2022/01/30 10:37:12;;;;;;;13.00;3.97;;;;;;;6.31;68.74;100920.59;5083590;27;20738;-49
2022/01/30 10:40:02;;;;;;;10.13;4.93;;;;;;;6.31;68.51;100919.72;5086099;27;20734;-50
2022/01/30 10:42:38;;;;;;;16.23;4.30;;;;;;;6.25;68.09;100922.19;5083884;27;20655;-49
2022/01/30 10:45:08;;;;;;;15.27;5.07;;;;;;;6.29;68.74;100918.81;5083641;27;20322;-50
2022/01/30 10:47:36;;;;;;;13.70;4.17;;;;;;;6.29;67.33;100921.44;5086754;27;20246;-50
2022/01/30 10:50:06;;;;;;;12.13;3.83;;;;;;;6.35;67.02;100935.47;5086887;28;20250;-50
2022/01/30 10:52:33;;;;;;;20.10;4.20;;;;;;;6.32;66.86;100957.97;5079294;28;20246;-51
2022/01/30 10:55:06;;;;;;;20.13;5.23;;;;;;;6.27;66.13;100946.56;5081188;27;20268;-50
2022/01/30 10:57:40;;;;;;;19.17;4.07;;;;;;;6.31;67.07;100937.97;5088640;27;20235;-53
2022/01/30 11:00:09;;;;;;;16.80;4.73;;;;;;;6.34;66.84;100949.31;5088918;28;20752;-49
2022/01/30 11:02:38;;;;;;;19.23;3.93;;;;;;;6.36;66.50;100955.47;5079642;28;20288;-50
2022/01/30 11:05:10;;;;;;;21.90;5.57;;;;;;;6.37;66.06;100953.72;5082489;28;20233;-50
2022/01/30 11:07:36;;;;;;;13.37;4.07;;;;;;;6.39;65.55;100967.69;5083030;28;20249;-53
2022/01/30 11:10:10;;;;;;;13.33;4.07;;;;;;;6.38;65.86;100952.88;5086511;28;20364;-51
2022/01/30 11:12:43;;;;;;;19.17;5.10;;;;;;;6.36;66.33;100958.06;5085279;28;20242;-49
2022/01/30 11:15:22;;;;;;;15.30;4.97;;;;;;;6.32;66.14;100966.69;5085796;28;20236;-50
2022/01/30 11:17:48;;;;;;;25.60;4.37;;;;;;;6.33;66.23;100985.81;5082980;28;20230;-50
2022/01/30 11:20:15;;;;;;;20.93;6.03;;;;;;;6.38;66.26;100992.88;5085196;28;20249;-49
2022/01/30 11:22:45;;;;;;;21.73;5.10;;;;;;;6.42;66.98;100993.81;5085305;28;20230;-51
2022/01/30 11:25:13;;;;;;;19.03;5.40;;;;;;;6.47;66.52;100992.19;5087586;28;20272;-50
2022/01/30 11:27:41;;;;;;;14.97;4.93;;;;;;;6.47;65.92;101002.63;5084753;27;20253;-50
2022/01/30 11:30:11;;;;;;;25.93;5.50;;;;;;;6.48;66.49;100993.94;5072856;28;20231;-49
2022/01/30 11:32:39;;;;;;;19.37;4.47;;;;;;;6.48;65.90;101020.03;5078736;27;20234;-51
2022/01/30 11:35:06;;;;;;;16.83;4.80;;;;;;;6.41;65.76;101005.09;5085111;28;20222;-50
2022/01/30 11:37:37;;;;;;;18.93;5.17;;;;;;;6.44;66.01;101013.00;5065389;28;20270;-50
2022/01/30 11:40:12;;;;;;;24.47;7.10;;;;;;;6.41;66.77;101011.19;5070778;27;20239;-49
2022/01/30 11:42:41;;;;;;;14.53;5.03;;;;;;;6.50;65.98;101013.13;5079530;28;20230;-49
2022/01/30 11:45:19;;;;;;;19.07;5.57;;;;;;;6.51;66.08;101016.59;5072546;28;20219;-49
2022/01/30 11:47:48;;;;;;;13.37;5.17;;;;;;;6.42;66.07;101030.31;5072865;28;20341;-49
2022/01/30 11:50:18;;;;;;;22.03;5.43;;;;;;;6.43;65.39;101013.84;5071703;28;20250;-50
2022/01/30 11:53:05;;;;;;;22.30;5.47;;;;;;;6.49;64.44;101026.09;5077184;27;20234;-51
2022/01/30 11:55:49;;;;;;;27.37;6.17;;;;;;;6.50;64.13;101023.56;5072591;28;20329;-51
2022/01/30 11:58:38;;;;;;;18.13;6.00;;;;;;;6.46;64.57;101037.38;5080796;28;20254;-48
2022/01/30 12:01:13;;;;;;;16.43;4.73;;;;;;;6.52;64.85;101032.28;5078458;28;20230;-51
2022/01/30 12:03:39;;;;;;;18.87;5.27;;;;;;;6.58;63.83;101031.53;5076764;27;20306;-50
2022/01/30 12:06:28;;;;;;;14.67;3.80;;;;;;;6.68;63.10;101030.88;5076268;28;20253;-49
2022/01/30 12:08:56;;;;;;;13.00;5.10;;;;;;;6.72;64.28;101042.25;5072845;28;20242;-51
2022/01/30 12:11:59;;;;;;;14.13;4.77;;;;;;;6.74;62.92;101031.00;5075985;28;20255;-56
2022/01/30 12:14:54;;;;;;;21.00;5.57;;;;;;;6.70;62.93;101044.78;5082408;28;20866;-49